Time;durP1;ratioP1;P1;durP2;ratioP2;P2;SDS_P1;SDS_P2;PMS_P1;PMS_P2;Temp;Humidity;BMP_temperature;BMP_pressure;BME280_temperature;BME280_humidity;BME280_pressure;Samples;Min_cycle;Max_cycle;Signal;HPM_P1;HPM_P2
2021/04/25 00:01:56;;;;;;;1.50;0.90;;;9.20;99.90;;;;;;4978895;28;20238;-88
2021/04/25 00:04:29;;;;;;;2.77;0.90;;;9.20;99.90;;;;;;4977631;28;20210;-88
2021/04/25 00:06:59;;;;;;;1.33;0.70;;;9.50;99.90;;;;;;4977766;28;20668;-89
2021/04/25 00:09:29;;;;;;;1.57;0.60;;;9.50;99.90;;;;;;4978110;28;20305;-88
2021/04/25 00:12:01;;;;;;;1.63;1.00;;;9.30;99.90;;;;;;4978272;28;20264;-89
2021/04/25 00:14:32;;;;;;;0.63;0.63;;;9.50;99.90;;;;;;4977123;28;20211;-88
2021/04/25 00:17:03;;;;;;;1.07;0.73;;;9.50;99.90;;;;;;4978034;28;20276;-88
2021/04/25 00:19:35;;;;;;;0.93;0.73;;;9.40;99.90;;;;;;4977927;28;20594;-88
2021/04/25 00:22:06;;;;;;;2.50;0.97;;;9.20;99.90;;;;;;4978195;28;20266;-88
2021/04/25 00:24:37;;;;;;;1.40;0.90;;;9.30;99.90;;;;;;4976010;28;20202;-88
2021/04/25 00:27:08;;;;;;;0.70;0.70;;;9.50;99.90;;;;;;4977835;28;20266;-87
2021/04/25 00:29:39;;;;;;;0.87;0.80;;;9.40;99.90;;;;;;4977714;28;20200;-88
2021/04/25 00:32:09;;;;;;;0.77;0.70;;;9.20;99.90;;;;;;4978374;28;20211;-88
2021/04/25 00:34:41;;;;;;;1.37;0.73;;;9.10;99.90;;;;;;4976908;28;20685;-88
2021/04/25 00:37:12;;;;;;;1.13;0.73;;;9.20;99.90;;;;;;4978194;28;20226;-87
2021/04/25 00:39:44;;;;;;;1.17;0.90;;;9.10;99.90;;;;;;4977710;28;20628;-88
2021/04/25 00:42:16;;;;;;;0.77;0.77;;;9.20;99.90;;;;;;4978046;28;20214;-88
2021/04/25 00:44:47;;;;;;;1.00;0.90;;;9.40;99.90;;;;;;4978418;28;20256;-88
2021/04/25 00:47:17;;;;;;;1.27;0.73;;;9.40;99.90;;;;;;4978292;28;20246;-89
2021/04/25 00:49:48;;;;;;;0.50;0.50;;;9.10;99.90;;;;;;4976759;28;20214;-89
2021/04/25 00:52:18;;;;;;;1.30;0.83;;;9.10;99.90;;;;;;4978812;28;20242;-89
2021/04/25 00:54:48;;;;;;;1.83;0.70;;;9.10;99.90;;;;;;4993433;28;20265;-89
2021/04/25 00:57:21;;;;;;;0.93;0.80;;;9.10;99.90;;;;;;4989254;28;20211;-89
2021/04/25 00:59:55;;;;;;;0.80;0.80;;;9.10;99.90;;;;;;4973004;28;20270;-89
2021/04/25 01:02:26;;;;;;;1.40;0.90;;;9.00;99.90;;;;;;4959259;28;20207;-89
2021/04/25 01:04:58;;;;;;;0.80;0.80;;;9.20;99.90;;;;;;4957950;29;20333;-89
2021/04/25 01:07:29;;;;;;;0.77;0.77;;;9.10;99.90;;;;;;4958261;29;20282;-89
2021/04/25 01:10:00;;;;;;;0.60;0.60;;;9.00;99.90;;;;;;4957650;28;20216;-89
2021/04/25 01:12:31;;;;;;;1.10;0.70;;;8.90;99.90;;;;;;4957149;29;20269;-89
2021/04/25 01:15:02;;;;;;;1.30;0.80;;;8.90;99.90;;;;;;4955740;29;20227;-88
2021/04/25 01:17:32;;;;;;;0.90;0.80;;;9.10;99.90;;;;;;4957664;28;20246;-89
2021/04/25 01:20:06;;;;;;;1.83;0.80;;;9.10;99.90;;;;;;4960286;28;20558;-88
2021/04/25 01:22:39;;;;;;;0.90;0.90;;;9.10;99.90;;;;;;4977775;28;20211;-89
2021/04/25 01:25:11;;;;;;;0.70;0.70;;;9.40;99.90;;;;;;4975946;28;20540;-89
2021/04/25 01:27:42;;;;;;;1.57;1.00;;;9.30;99.90;;;;;;4976567;28;20203;-89
2021/04/25 01:30:15;;;;;;;1.17;0.90;;;9.40;99.90;;;;;;4976581;28;20207;-89
2021/04/25 01:32:45;;;;;;;1.20;0.90;;;9.30;99.90;;;;;;4977125;28;20241;-89
2021/04/25 01:35:21;;;;;;;1.30;1.00;;;9.30;99.90;;;;;;4975732;28;20222;-89
2021/04/25 01:37:54;;;;;;;1.93;1.07;;;9.30;99.90;;;;;;4976138;28;20222;-89
2021/04/25 01:40:26;;;;;;;1.13;1.03;;;9.40;99.90;;;;;;4976537;28;20539;-88
2021/04/25 01:42:57;;;;;;;1.10;1.00;;;9.60;99.90;;;;;;4975429;28;20266;-89
2021/04/25 01:45:29;;;;;;;1.43;1.03;;;9.70;99.90;;;;;;4975580;28;20236;-89
2021/04/25 01:48:02;;;;;;;0.93;0.80;;;9.70;99.90;;;;;;4976334;28;20211;-89
2021/04/25 01:50:33;;;;;;;0.80;0.80;;;9.70;99.90;;;;;;4975954;28;20207;-89
2021/04/25 01:53:06;;;;;;;0.70;0.70;;;9.80;99.90;;;;;;4976227;28;20250;-89
2021/04/25 01:55:38;;;;;;;1.63;1.07;;;9.70;99.90;;;;;;4974923;28;20238;-89
2021/04/25 01:58:10;;;;;;;1.07;0.70;;;9.70;99.90;;;;;;4975940;28;20258;-89
2021/04/25 02:00:44;;;;;;;0.77;0.77;;;9.60;99.90;;;;;;4976459;28;20246;-90
2021/04/25 02:03:15;;;;;;;0.80;0.80;;;9.60;99.90;;;;;;4975773;28;20245;-89
2021/04/25 02:05:46;;;;;;;1.87;0.87;;;9.70;99.90;;;;;;4975343;28;20293;-89
2021/04/25 02:08:18;;;;;;;0.90;0.70;;;9.60;99.90;;;;;;4977344;28;20231;-89
2021/04/25 02:10:50;;;;;;;2.00;0.90;;;9.70;99.90;;;;;;4975991;28;20211;-89
2021/04/25 02:13:21;;;;;;;1.40;1.00;;;9.70;99.90;;;;;;4976338;28;20215;-90
2021/04/25 02:15:52;;;;;;;1.17;0.90;;;9.70;99.90;;;;;;4975102;28;20254;-89
2021/04/25 02:18:23;;;;;;;1.70;1.00;;;9.80;99.90;;;;;;4975978;28;20211;-88
2021/04/25 02:20:54;;;;;;;0.90;0.90;;;9.80;99.90;;;;;;4976284;28;20557;-88
2021/04/25 02:23:26;;;;;;;1.40;1.10;;;9.60;99.90;;;;;;4975995;28;20305;-88
2021/04/25 02:25:57;;;;;;;1.23;0.93;;;9.60;99.90;;;;;;4974485;28;20741;-88
2021/04/25 02:28:28;;;;;;;0.90;0.80;;;9.70;99.90;;;;;;4975508;28;20207;-88
2021/04/25 02:30:58;;;;;;;1.17;1.00;;;9.60;99.90;;;;;;4975699;28;20241;-88
2021/04/25 02:33:28;;;;;;;3.63;0.97;;;9.60;99.90;;;;;;4975022;28;20219;-88
2021/04/25 02:35:59;;;;;;;2.00;1.27;;;9.50;99.90;;;;;;4975172;28;20215;-88
2021/04/25 02:38:31;;;;;;;2.00;1.20;;;9.40;99.90;;;;;;4974510;28;20230;-88
2021/04/25 02:41:02;;;;;;;1.43;1.20;;;9.40;99.90;;;;;;4975239;28;20203;-88
2021/04/25 02:43:33;;;;;;;1.43;1.33;;;9.40;99.90;;;;;;4976081;28;20330;-88
2021/04/25 02:46:03;;;;;;;2.23;1.30;;;9.40;99.90;;;;;;4974457;28;20366;-89
2021/04/25 02:48:34;;;;;;;1.80;1.40;;;9.40;99.90;;;;;;4975841;28;20210;-89
2021/04/25 02:51:05;;;;;;;3.37;1.20;;;9.40;99.90;;;;;;4975663;28;20226;-89
2021/04/25 02:53:37;;;;;;;0.97;0.97;;;9.40;99.90;;;;;;4975698;28;20337;-89
2021/04/25 02:56:08;;;;;;;1.20;1.10;;;9.40;99.90;;;;;;4974746;28;20211;-89
2021/04/25 02:58:37;;;;;;;2.23;1.17;;;9.40;99.90;;;;;;4975317;28;20211;-89
2021/04/25 03:01:08;;;;;;;1.07;0.97;;;9.30;99.90;;;;;;4975040;28;20243;-89
2021/04/25 03:03:38;;;;;;;1.67;1.30;;;9.30;99.90;;;;;;4975320;28;20246;-89
2021/04/25 03:06:09;;;;;;;1.20;1.10;;;9.20;99.90;;;;;;4974377;28;20324;-90
2021/04/25 03:08:41;;;;;;;1.30;1.20;;;9.20;99.90;;;;;;4976080;28;20283;-90
2021/04/25 03:11:12;;;;;;;1.50;1.40;;;9.20;99.90;;;;;;4975120;28;20206;-88
2021/04/25 03:13:42;;;;;;;3.83;1.90;;;9.10;99.90;;;;;;4989706;28;20203;-89
2021/04/25 03:16:14;;;;;;;1.57;1.43;;;9.10;99.90;;;;;;4991944;28;20257;-88
2021/04/25 03:18:45;;;;;;;2.23;1.50;;;9.10;99.90;;;;;;4994240;28;20210;-88
2021/04/25 03:21:16;;;;;;;1.73;1.63;;;9.20;99.90;;;;;;4979077;28;20684;-88
2021/04/25 03:23:48;;;;;;;1.43;1.20;;;9.10;99.90;;;;;;4976367;28;20215;-88
2021/04/25 03:26:19;;;;;;;1.20;1.10;;;9.10;99.90;;;;;;4974227;28;20546;-88
2021/04/25 03:28:50;;;;;;;1.87;0.90;;;9.20;99.90;;;;;;4977278;28;20239;-88
2021/04/25 03:31:21;;;;;;;1.40;1.30;;;9.10;99.90;;;;;;4977848;28;20254;-88
2021/04/25 03:33:52;;;;;;;2.13;1.27;;;9.10;99.90;;;;;;4976578;28;20620;-88
2021/04/25 03:36:23;;;;;;;2.07;1.43;;;9.00;99.90;;;;;;4959505;28;20207;-88
2021/04/25 03:38:55;;;;;;;1.40;1.00;;;9.00;99.90;;;;;;4954825;29;20573;-88
2021/04/25 03:41:26;;;;;;;1.30;1.10;;;9.00;99.90;;;;;;4957498;28;20210;-88
2021/04/25 03:43:57;;;;;;;1.33;1.23;;;9.00;99.90;;;;;;4956134;28;20311;-88
2021/04/25 03:46:28;;;;;;;3.83;1.30;;;9.00;99.90;;;;;;4954775;28;20291;-88
2021/04/25 03:48:59;;;;;;;1.70;1.20;;;9.00;99.90;;;;;;4956403;28;20254;-89
2021/04/25 03:51:30;;;;;;;1.97;1.50;;;9.00;99.90;;;;;;4957911;28;20290;-89
2021/04/25 03:54:03;;;;;;;2.30;1.30;;;9.00;99.90;;;;;;4955282;28;20231;-89
2021/04/25 03:56:34;;;;;;;2.40;1.60;;;9.00;99.90;;;;;;4975965;28;20206;-89
2021/04/25 03:59:05;;;;;;;3.27;2.00;;;9.00;99.90;;;;;;4996403;28;20294;-88
2021/04/25 04:01:36;;;;;;;2.30;2.10;;;8.90;99.90;;;;;;4995462;28;20206;-89
2021/04/25 04:04:07;;;;;;;3.80;2.67;;;9.00;99.90;;;;;;4994573;28;20552;-88
2021/04/25 04:06:37;;;;;;;2.20;2.00;;;8.90;99.90;;;;;;4995629;28;20324;-89
2021/04/25 04:09:10;;;;;;;2.23;1.80;;;8.90;99.90;;;;;;4978679;28;20337;-88
2021/04/25 04:11:41;;;;;;;2.00;1.70;;;8.90;99.90;;;;;;4977173;28;20230;-89
2021/04/25 04:14:11;;;;;;;2.33;1.80;;;8.90;99.90;;;;;;4978988;28;20211;-88
2021/04/25 04:16:42;;;;;;;2.70;1.60;;;8.90;99.90;;;;;;4977663;28;20668;-88
2021/04/25 04:19:13;;;;;;;1.70;1.60;;;8.80;99.90;;;;;;4978164;28;20306;-88
2021/04/25 04:21:44;;;;;;;2.00;1.67;;;8.90;99.90;;;;;;4978359;28;20242;-88
2021/04/25 04:24:16;;;;;;;2.33;1.93;;;8.90;99.90;;;;;;4977840;28;20218;-88
2021/04/25 04:26:47;;;;;;;1.60;1.50;;;8.80;99.90;;;;;;4976702;28;20363;-89
2021/04/25 04:29:17;;;;;;;2.47;1.70;;;8.90;99.90;;;;;;4977671;28;20207;-88
2021/04/25 04:31:48;;;;;;;1.80;1.67;;;8.90;99.90;;;;;;4977890;28;20577;-88
2021/04/25 04:34:19;;;;;;;2.60;1.30;;;8.80;99.90;;;;;;4977489;28;20242;-86
2021/04/25 04:36:50;;;;;;;2.20;1.60;;;8.80;99.90;;;;;;4976776;28;20238;-89
2021/04/25 04:39:22;;;;;;;2.13;1.47;;;8.80;99.90;;;;;;4976194;28;20270;-88
2021/04/25 04:41:53;;;;;;;1.37;1.27;;;8.80;99.90;;;;;;4977518;28;20218;-88
2021/04/25 04:44:24;;;;;;;1.47;1.30;;;8.80;99.90;;;;;;4977886;28;20269;-89
2021/04/25 04:46:55;;;;;;;1.77;1.40;;;8.70;99.90;;;;;;4976731;28;20234;-89
2021/04/25 04:49:26;;;;;;;1.50;1.40;;;8.60;99.90;;;;;;4977638;28;20206;-89
2021/04/25 04:51:56;;;;;;;3.47;1.30;;;8.60;99.90;;;;;;4977623;28;20640;-89
2021/04/25 04:54:29;;;;;;;3.10;1.60;;;8.60;99.90;;;;;;4977342;28;20253;-88
2021/04/25 04:56:59;;;;;;;2.47;1.70;;;8.60;99.90;;;;;;4976956;28;20264;-89
2021/04/25 04:59:30;;;;;;;3.10;1.60;;;8.70;99.90;;;;;;4979256;28;20219;-89
2021/04/25 05:02:01;;;;;;;2.10;1.70;;;8.70;99.90;;;;;;4977617;28;20636;-88
2021/04/25 05:04:32;;;;;;;2.67;1.90;;;8.70;99.90;;;;;;4977176;28;20203;-89
2021/04/25 05:07:02;;;;;;;1.97;1.50;;;8.70;99.90;;;;;;4976444;28;20230;-89
2021/04/25 05:09:34;;;;;;;1.40;1.30;;;8.70;99.90;;;;;;4979170;28;20209;-89
2021/04/25 05:12:06;;;;;;;1.10;1.10;;;8.60;99.90;;;;;;4983399;28;20206;-90
2021/04/25 05:14:36;;;;;;;1.20;1.10;;;8.60;99.90;;;;;;4977431;28;20235;-88
2021/04/25 05:17:07;;;;;;;1.20;1.10;;;8.60;99.90;;;;;;4976745;28;20222;-88
2021/04/25 05:19:38;;;;;;;1.40;1.20;;;8.60;99.90;;;;;;4977454;28;20207;-88
2021/04/25 05:22:09;;;;;;;1.30;1.10;;;8.60;99.90;;;;;;4957855;28;20219;-88
2021/04/25 05:24:41;;;;;;;1.70;1.30;;;8.60;99.90;;;;;;4958598;28;20600;-88
2021/04/25 05:27:12;;;;;;;1.50;1.20;;;8.60;99.90;;;;;;4957177;29;20335;-88
2021/04/25 05:29:42;;;;;;;1.67;1.00;;;8.60;99.90;;;;;;4958191;28;20207;-88
2021/04/25 05:32:13;;;;;;;1.37;1.17;;;8.60;99.90;;;;;;4963057;28;20212;-88
2021/04/25 05:34:43;;;;;;;1.10;0.90;;;8.60;99.90;;;;;;4977010;28;20199;-91
2021/04/25 05:37:14;;;;;;;2.40;1.17;;;8.60;99.90;;;;;;4976267;28;20210;-89
2021/04/25 05:39:47;;;;;;;1.10;0.97;;;8.60;99.90;;;;;;4965494;28;20212;-88
2021/04/25 05:42:17;;;;;;;1.53;1.13;;;8.60;99.90;;;;;;4958951;29;20239;-88
2021/04/25 05:44:48;;;;;;;2.20;1.03;;;8.60;99.90;;;;;;4961583;28;20226;-90
2021/04/25 05:47:19;;;;;;;1.13;1.03;;;8.50;99.90;;;;;;4976615;28;20269;-89
2021/04/25 05:49:50;;;;;;;1.83;0.97;;;8.50;99.90;;;;;;4979806;28;20207;-89
2021/04/25 05:52:21;;;;;;;2.23;1.07;;;8.50;99.90;;;;;;4976063;28;20673;-88
2021/04/25 05:54:57;;;;;;;1.20;1.00;;;8.60;99.90;;;;;;4959503;28;20249;-89
2021/04/25 05:57:28;;;;;;;2.13;0.87;;;8.50;99.90;;;;;;4979986;28;20215;-89
2021/04/25 05:59:58;;;;;;;1.97;1.40;;;8.50;99.90;;;;;;4976226;28;20246;-89
2021/04/25 06:02:29;;;;;;;3.03;1.50;;;8.50;99.90;;;;;;4975996;28;20206;-89
2021/04/25 06:05:00;;;;;;;1.90;1.20;;;8.50;99.90;;;;;;4977585;28;20214;-88
2021/04/25 06:07:31;;;;;;;1.60;1.20;;;8.50;99.90;;;;;;4981154;28;20249;-89
2021/04/25 06:10:04;;;;;;;1.63;1.30;;;8.60;99.90;;;;;;4995722;28;20218;-88
2021/04/25 06:12:34;;;;;;;2.20;1.40;;;8.50;99.90;;;;;;4995646;28;20681;-89
2021/04/25 06:15:06;;;;;;;1.50;1.40;;;8.60;99.90;;;;;;4994417;28;20214;-88
2021/04/25 06:17:37;;;;;;;2.10;1.70;;;8.50;99.90;;;;;;4995004;28;20571;-88
2021/04/25 06:20:13;;;;;;;2.60;1.50;;;8.50;99.90;;;;;;4995097;28;20206;-88
2021/04/25 06:22:45;;;;;;;1.77;1.53;;;8.50;99.90;;;;;;4995383;28;20237;-88
2021/04/25 06:25:19;;;;;;;1.77;1.30;;;8.50;99.90;;;;;;4994377;28;20209;-88
2021/04/25 06:27:49;;;;;;;5.23;1.73;;;8.50;99.90;;;;;;4997342;28;20376;-88
2021/04/25 06:30:21;;;;;;;1.53;1.30;;;8.50;99.90;;;;;;4995306;28;20222;-88
2021/04/25 06:32:52;;;;;;;1.50;1.40;;;8.50;99.90;;;;;;4994731;28;20268;-88
2021/04/25 06:35:23;;;;;;;2.57;1.40;;;8.50;99.90;;;;;;4994757;28;20620;-88
2021/04/25 06:37:53;;;;;;;1.10;1.00;;;8.50;99.90;;;;;;5000103;28;20209;-88
2021/04/25 06:40:26;;;;;;;1.77;1.40;;;8.50;99.90;;;;;;4996337;28;20206;-88
2021/04/25 06:43:00;;;;;;;1.30;1.20;;;8.50;99.90;;;;;;4994706;28;20206;-88
2021/04/25 06:45:30;;;;;;;7.30;1.20;;;8.50;99.90;;;;;;4993078;28;20224;-88
2021/04/25 06:48:01;;;;;;;1.37;1.03;;;8.40;99.90;;;;;;4996907;28;20295;-89
2021/04/25 06:50:32;;;;;;;4.70;1.53;;;8.40;99.90;;;;;;4994847;28;20209;-89
2021/04/25 06:53:03;;;;;;;2.53;1.53;;;8.40;99.90;;;;;;4994733;28;20221;-88
2021/04/25 06:55:35;;;;;;;3.13;1.30;;;8.40;99.90;;;;;;4993568;28;20222;-88
2021/04/25 06:58:06;;;;;;;1.50;1.20;;;8.40;99.90;;;;;;4994039;28;20214;-88
2021/04/25 07:00:36;;;;;;;2.40;1.50;;;8.40;99.90;;;;;;4994201;28;20216;-89
2021/04/25 07:03:07;;;;;;;4.93;1.50;;;8.40;99.90;;;;;;4994391;28;20236;-89
2021/04/25 07:05:38;;;;;;;3.07;1.47;;;8.40;99.90;;;;;;4993718;28;20663;-88
2021/04/25 07:08:09;;;;;;;2.37;1.23;;;8.40;99.90;;;;;;4994044;28;20288;-89
2021/04/25 07:10:40;;;;;;;2.27;1.43;;;8.40;99.90;;;;;;4995028;28;20694;-88
2021/04/25 07:13:11;;;;;;;1.90;1.30;;;8.40;99.90;;;;;;4994038;28;20230;-89
2021/04/25 07:15:41;;;;;;;1.20;1.10;;;8.30;99.90;;;;;;4993484;28;20238;-88
2021/04/25 07:18:12;;;;;;;1.60;1.50;;;8.30;99.90;;;;;;4994112;28;20699;-88
2021/04/25 07:20:44;;;;;;;1.47;1.37;;;8.30;99.90;;;;;;4994412;28;20210;-88
2021/04/25 07:23:15;;;;;;;1.33;1.23;;;8.30;99.90;;;;;;4992224;28;20206;-89
2021/04/25 07:25:47;;;;;;;2.10;1.70;;;8.30;99.90;;;;;;4958239;28;20245;-88
2021/04/25 07:28:18;;;;;;;2.27;1.93;;;8.40;99.90;;;;;;4974719;28;20242;-87
2021/04/25 07:30:48;;;;;;;6.27;2.20;;;8.40;99.90;;;;;;4974791;28;20730;-88
2021/04/25 07:33:19;;;;;;;1.53;1.30;;;8.40;99.90;;;;;;4974842;28;20571;-88
2021/04/25 07:35:50;;;;;;;2.40;1.20;;;8.40;99.90;;;;;;4974314;28;20265;-88
2021/04/25 07:38:21;;;;;;;4.43;1.07;;;8.30;99.90;;;;;;4975073;28;20213;-86
2021/04/25 07:40:55;;;;;;;3.80;1.20;;;8.20;99.90;;;;;;4974760;28;20264;-88
2021/04/25 07:43:25;;;;;;;8.57;1.27;;;8.20;99.90;;;;;;4974819;28;20727;-88
2021/04/25 07:45:55;;;;;;;3.13;0.80;;;8.20;99.90;;;;;;4974614;28;20210;-89
2021/04/25 07:48:26;;;;;;;1.13;0.63;;;8.20;99.90;;;;;;4974869;28;20246;-89
2021/04/25 07:51:00;;;;;;;1.00;0.80;;;8.20;99.90;;;;;;4993539;28;20221;-88
2021/04/25 07:53:31;;;;;;;1.33;0.90;;;8.20;99.90;;;;;;4993899;28;20591;-89
2021/04/25 07:56:03;;;;;;;2.27;1.10;;;8.20;99.90;;;;;;4984912;28;20710;-88
2021/04/25 07:58:34;;;;;;;1.40;1.00;;;8.20;99.90;;;;;;4981049;28;20308;-89
2021/04/25 08:01:05;;;;;;;2.80;1.00;;;8.30;99.90;;;;;;4978604;28;20296;-88
2021/04/25 08:03:36;;;;;;;2.90;1.13;;;8.20;99.90;;;;;;4980146;28;20514;-88
2021/04/25 08:06:07;;;;;;;0.87;0.87;;;8.20;99.90;;;;;;4978344;28;20214;-89
2021/04/25 08:08:38;;;;;;;0.77;0.77;;;8.10;99.90;;;;;;4981109;28;20238;-89
2021/04/25 08:11:11;;;;;;;2.43;1.10;;;8.10;99.90;;;;;;4977334;28;20734;-89
2021/04/25 08:13:41;;;;;;;2.07;1.07;;;8.10;99.90;;;;;;4978765;28;20214;-89
2021/04/25 08:16:12;;;;;;;2.20;1.10;;;8.20;99.90;;;;;;4977177;28;20240;-87
2021/04/25 08:18:42;;;;;;;2.10;1.07;;;8.20;99.90;;;;;;4978563;28;20213;-88
2021/04/25 08:21:13;;;;;;;1.40;1.20;;;8.20;99.90;;;;;;4978136;28;20217;-88
2021/04/25 08:23:44;;;;;;;1.87;1.20;;;8.10;99.90;;;;;;4977995;28;20231;-88
2021/04/25 08:26:16;;;;;;;2.90;1.50;;;8.10;99.90;;;;;;4977037;28;20207;-88
2021/04/25 08:28:46;;;;;;;2.37;1.30;;;8.10;99.90;;;;;;4977659;28;20242;-88
2021/04/25 08:31:18;;;;;;;0.87;0.80;;;8.10;99.90;;;;;;4977716;28;20301;-88
2021/04/25 08:33:49;;;;;;;1.80;1.20;;;8.10;99.90;;;;;;4977110;28;20207;-86
2021/04/25 08:36:20;;;;;;;2.27;1.20;;;8.10;99.90;;;;;;4977752;28;20207;-88
2021/04/25 08:38:50;;;;;;;0.80;0.73;;;8.00;99.90;;;;;;4979074;28;20205;-88
2021/04/25 08:41:24;;;;;;;2.83;0.77;;;7.90;99.90;;;;;;4977985;28;20300;-88
2021/04/25 08:43:56;;;;;;;1.50;0.77;;;7.90;99.90;;;;;;4979974;28;20211;-88
2021/04/25 08:46:27;;;;;;;4.13;0.87;;;7.90;99.90;;;;;;4975085;28;20240;-89
2021/04/25 08:48:58;;;;;;;2.17;1.00;;;7.90;99.90;;;;;;4977696;28;20211;-89
2021/04/25 08:51:29;;;;;;;1.67;0.90;;;8.00;99.90;;;;;;4978495;28;20225;-89
2021/04/25 08:54:00;;;;;;;1.03;0.73;;;7.90;99.90;;;;;;4979924;28;20210;-89
2021/04/25 08:56:32;;;;;;;0.87;0.87;;;7.90;99.90;;;;;;4978124;28;20648;-89
2021/04/25 08:59:03;;;;;;;0.80;0.80;;;7.90;99.90;;;;;;4979952;28;20230;-89
2021/04/25 09:01:34;;;;;;;4.23;0.77;;;8.00;99.90;;;;;;4979067;28;20719;-89
2021/04/25 09:04:05;;;;;;;0.97;0.53;;;7.90;99.90;;;;;;4977693;28;20221;-89
2021/04/25 09:06:36;;;;;;;2.77;0.50;;;7.90;99.90;;;;;;4979142;28;20233;-89
2021/04/25 09:09:08;;;;;;;1.23;0.50;;;7.90;99.90;;;;;;4977841;28;20221;-88
2021/04/25 09:11:41;;;;;;;6.73;0.70;;;7.90;99.90;;;;;;4980649;28;20206;-89
2021/04/25 09:14:22;;;;;;;1.60;0.50;;;7.90;99.90;;;;;;4977403;28;20207;-89
2021/04/25 09:17:01;;;;;;;0.80;0.50;;;7.80;99.90;;;;;;4975521;28;20263;-88
2021/04/25 09:19:50;;;;;;;0.60;0.60;;;7.80;99.90;;;;;;4976678;28;20297;-88
2021/04/25 09:22:24;;;;;;;2.70;0.40;;;7.80;99.90;;;;;;4975656;28;20211;-89
2021/04/25 09:25:08;;;;;;;1.63;0.40;;;7.80;99.90;;;;;;4976327;28;20268;-89
2021/04/25 09:27:41;;;;;;;2.83;0.43;;;7.90;99.90;;;;;;4977861;28;20229;-88
2021/04/25 09:30:13;;;;;;;1.70;0.40;;;7.90;99.90;;;;;;4977020;28;20271;-87
2021/04/25 09:32:44;;;;;;;3.80;0.70;;;7.90;99.90;;;;;;4978015;28;20260;-88
2021/04/25 09:35:17;;;;;;;0.53;0.40;;;7.90;99.90;;;;;;4974846;28;20253;-88
2021/04/25 09:37:49;;;;;;;3.50;0.77;;;7.70;99.90;;;;;;4977632;28;20265;-88
2021/04/25 09:40:21;;;;;;;0.63;0.30;;;7.70;99.90;;;;;;4976382;28;20255;-89
2021/04/25 09:43:05;;;;;;;1.20;0.73;;;7.70;99.90;;;;;;4977803;28;20199;-88
2021/04/25 09:45:38;;;;;;;0.50;0.40;;;7.80;99.90;;;;;;4975319;28;20312;-89
2021/04/25 09:48:24;;;;;;;0.43;0.40;;;7.80;99.90;;;;;;4980701;28;20252;-89
2021/04/25 09:51:16;;;;;;;0.30;0.30;;;7.80;99.90;;;;;;4974598;28;20257;-89
2021/04/25 09:54:01;;;;;;;4.30;0.53;;;7.90;99.90;;;;;;4975057;28;20244;-88
2021/04/25 09:56:39;;;;;;;3.13;0.53;;;7.90;99.90;;;;;;4975715;28;20199;-89
2021/04/25 09:59:11;;;;;;;0.90;0.40;;;7.80;99.90;;;;;;4976090;28;20249;-89
2021/04/25 10:01:43;;;;;;;0.30;0.30;;;7.80;99.90;;;;;;4976007;28;20242;-89
2021/04/25 10:04:30;;;;;;;1.33;0.50;;;7.70;99.90;;;;;;4978604;28;20581;-89
2021/04/25 10:07:02;;;;;;;0.50;0.40;;;7.80;99.90;;;;;;4991945;28;20268;-89
2021/04/25 10:09:35;;;;;;;1.53;1.00;;;7.70;99.90;;;;;;4992000;28;20746;-89
2021/04/25 10:12:06;;;;;;;1.20;0.73;;;7.70;99.90;;;;;;4984252;28;20244;-88
2021/04/25 10:14:39;;;;;;;1.30;1.20;;;7.80;99.90;;;;;;4976571;28;20211;-88
2021/04/25 10:17:22;;;;;;;1.73;1.10;;;7.80;99.90;;;;;;5068168;27;2496789;-87
2021/04/25 10:19:53;;;;;;;1.80;0.90;;;7.90;99.90;;;;;;5131780;28;20304;-87
2021/04/25 10:22:25;;;;;;;1.57;0.80;;;7.90;99.90;;;;;;5132564;28;20255;-88
2021/04/25 10:24:56;;;;;;;3.23;1.10;;;7.90;99.90;;;;;;5131291;28;20612;-88
2021/04/25 10:27:29;;;;;;;1.20;1.10;;;7.90;99.90;;;;;;5131739;28;20211;-87
2021/04/25 10:30:07;;;;;;;2.57;1.10;;;7.90;99.90;;;;;;5132040;28;20290;-88
2021/04/25 10:32:43;;;;;;;1.67;1.27;;;7.90;99.90;;;;;;5131773;28;20221;-88
2021/04/25 10:35:19;;;;;;;4.73;1.40;;;7.90;99.90;;;;;;5131265;28;20281;-88
2021/04/25 10:37:50;;;;;;;3.60;1.17;;;7.90;99.90;;;;;;5131950;28;20653;-88
2021/04/25 10:40:23;;;;;;;1.30;1.00;;;7.90;99.90;;;;;;5131427;28;20228;-87
2021/04/25 10:43:02;;;;;;;1.00;0.90;;;7.90;99.90;;;;;;5114494;28;20284;-87
2021/04/25 10:45:35;;;;;;;10.70;1.33;;;7.80;99.90;;;;;;5130566;28;20251;-88
2021/04/25 10:48:31;;;;;;;2.40;1.03;;;7.80;99.90;;;;;;5131543;28;20774;-89
2021/04/25 10:51:21;;;;;;;1.03;0.93;;;7.80;99.90;;;;;;5131316;28;20202;-89
2021/04/25 10:54:05;;;;;;;1.20;0.80;;;7.80;99.90;;;;;;5131072;28;20208;-89
2021/04/25 10:56:40;;;;;;;2.10;0.80;;;7.80;99.90;;;;;;5130124;28;20316;-88
2021/04/25 10:59:29;;;;;;;1.87;0.90;;;7.80;99.90;;;;;;5131727;28;20234;-89
2021/04/25 11:02:01;;;;;;;1.20;1.10;;;7.80;99.90;;;;;;5131302;28;20229;-89
2021/04/25 11:05:01;;;;;;;1.93;1.20;;;7.80;99.90;;;;;;5131531;28;20206;-89
2021/04/25 11:07:50;;;;;;;1.17;1.00;;;7.80;99.90;;;;;;5097376;28;20240;-89
2021/04/25 11:10:22;;;;;;;1.67;1.10;;;7.80;99.90;;;;;;5130605;28;20235;-89
2021/04/25 11:12:53;;;;;;;1.20;0.90;;;7.80;99.90;;;;;;5130898;28;20296;-89
2021/04/25 11:15:49;;;;;;;2.37;1.07;;;7.90;99.90;;;;;;5132122;28;20240;-88
2021/04/25 11:18:46;;;;;;;2.87;1.00;;;7.90;99.90;;;;;;5131995;28;20227;-88
2021/04/25 11:21:53;;;;;;;2.50;1.23;;;7.90;99.90;;;;;;5132720;28;20235;-88
2021/04/25 11:24:34;;;;;;;4.57;1.50;;;7.90;99.90;;;;;;5133412;28;20206;-88
2021/04/25 11:27:07;;;;;;;2.80;0.93;;;7.90;99.90;;;;;;5125823;28;20596;-88
2021/04/25 11:30:07;;;;;;;2.03;1.00;;;7.90;99.90;;;;;;5119593;28;20225;-88
2021/04/25 11:32:40;;;;;;;1.33;1.00;;;7.90;99.90;;;;;;5117327;28;20255;-88
2021/04/25 11:35:21;;;;;;;1.53;0.83;;;8.00;99.90;;;;;;5098839;28;20316;-88
2021/04/25 11:37:53;;;;;;;1.43;1.10;;;8.10;99.90;;;;;;5117385;28;20206;-88
2021/04/25 11:40:25;;;;;;;1.77;1.10;;;8.10;99.90;;;;;;5116899;28;20209;-88
2021/04/25 11:42:56;;;;;;;1.00;0.90;;;8.10;99.90;;;;;;5116570;28;20354;-88
2021/04/25 11:45:29;;;;;;;1.67;1.00;;;8.00;99.90;;;;;;5117825;28;20197;-88
2021/04/25 11:48:01;;;;;;;2.03;1.10;;;8.00;99.90;;;;;;5116784;28;20692;-89
2021/04/25 11:50:34;;;;;;;2.60;1.33;;;7.90;99.90;;;;;;5116642;28;20199;-88
2021/04/25 11:53:07;;;;;;;4.80;1.20;;;7.90;99.90;;;;;;5099712;28;20282;-88
2021/04/25 11:55:38;;;;;;;1.60;1.30;;;7.90;99.90;;;;;;5116502;28;20261;-89
2021/04/25 11:58:09;;;;;;;2.50;1.40;;;8.00;99.90;;;;;;5116431;28;20742;-89
2021/04/25 12:00:40;;;;;;;2.00;1.40;;;7.90;99.90;;;;;;5117662;28;20240;-89
2021/04/25 12:03:10;;;;;;;2.53;1.33;;;7.90;99.90;;;;;;5118481;28;20214;-88
2021/04/25 12:05:42;;;;;;;1.67;1.40;;;7.90;99.90;;;;;;5115960;28;20253;-89
2021/04/25 12:08:14;;;;;;;2.07;1.57;;;7.90;99.90;;;;;;5120076;28;20244;-89
2021/04/25 12:10:47;;;;;;;2.10;1.80;;;7.90;99.90;;;;;;5117334;28;20591;-88
2021/04/25 12:13:19;;;;;;;4.50;1.80;;;7.90;99.90;;;;;;5115850;28;20328;-89
2021/04/25 12:15:51;;;;;;;1.80;1.60;;;8.00;99.90;;;;;;5116434;28;20295;-88
2021/04/25 12:18:24;;;;;;;2.83;1.80;;;8.00;99.90;;;;;;5118961;28;20664;-88
2021/04/25 12:20:57;;;;;;;3.67;1.67;;;8.10;99.90;;;;;;5098925;28;20344;-88
2021/04/25 12:23:31;;;;;;;2.67;1.90;;;8.00;99.90;;;;;;5118783;28;20240;-88
2021/04/25 12:26:09;;;;;;;3.03;1.50;;;8.00;99.90;;;;;;5117313;28;20217;-88
2021/04/25 12:28:42;;;;;;;2.60;1.70;;;7.90;99.90;;;;;;5132241;28;20206;-87
2021/04/25 12:31:13;;;;;;;3.03;1.13;;;7.90;99.90;;;;;;5130878;28;20207;-88
2021/04/25 12:33:45;;;;;;;3.87;1.30;;;7.90;99.90;;;;;;5122263;28;20312;-89
2021/04/25 12:36:18;;;;;;;2.27;1.17;;;7.90;99.90;;;;;;5115343;28;20272;-87
2021/04/25 12:38:58;;;;;;;4.17;1.47;;;7.90;99.90;;;;;;5114577;28;20230;-88
2021/04/25 12:41:40;;;;;;;1.73;1.30;;;7.80;99.90;;;;;;5115726;28;20255;-88
2021/04/25 12:44:12;;;;;;;3.47;1.20;;;7.80;99.90;;;;;;5116021;28;20207;-88
2021/04/25 12:46:53;;;;;;;1.83;1.37;;;7.80;99.90;;;;;;5115956;28;20211;-89
2021/04/25 12:49:35;;;;;;;3.73;1.10;;;7.80;99.90;;;;;;5099919;28;20262;-89
2021/04/25 12:52:08;;;;;;;2.03;1.00;;;7.80;99.90;;;;;;5115777;28;20583;-88
2021/04/25 12:54:43;;;;;;;2.80;1.00;;;7.70;99.90;;;;;;5116816;28;20203;-89
2021/04/25 12:57:14;;;;;;;2.40;1.00;;;7.70;99.90;;;;;;5115475;28;20275;-89
2021/04/25 12:59:45;;;;;;;1.57;0.90;;;7.70;99.90;;;;;;5115561;28;20285;-89
2021/04/25 13:02:17;;;;;;;2.70;1.00;;;7.70;99.90;;;;;;5115607;28;20213;-89
2021/04/25 13:04:49;;;;;;;1.10;1.00;;;7.70;99.90;;;;;;5098348;28;20205;-90
2021/04/25 13:07:25;;;;;;;1.27;0.80;;;7.70;99.90;;;;;;5114821;28;20216;-89
2021/04/25 13:10:16;;;;;;;1.83;0.90;;;7.70;99.90;;;;;;5105919;28;20576;-88
2021/04/25 13:12:48;;;;;;;2.33;0.83;;;7.70;99.90;;;;;;5094728;28;20203;-89
2021/04/25 13:15:28;;;;;;;2.03;0.93;;;7.70;99.90;;;;;;5094169;28;20647;-89
2021/04/25 13:18:01;;;;;;;0.97;0.90;;;7.70;99.90;;;;;;5094508;28;20234;-88
2021/04/25 13:20:36;;;;;;;1.60;0.80;;;7.80;99.90;;;;;;5094074;28;20248;-88
2021/04/25 13:23:09;;;;;;;1.63;0.80;;;7.70;99.90;;;;;;5094627;28;20206;-88
2021/04/25 13:25:44;;;;;;;1.43;0.80;;;7.70;99.90;;;;;;5093314;28;20258;-88
2021/04/25 13:28:17;;;;;;;5.40;0.87;;;7.80;99.90;;;;;;5094250;28;20229;-88